sensor_id;sensor_type;location;lat;lon;timestamp;P1;P2;P0
72793;PMS5003;63436;26.334;50.194;2022-12-10T00:02:00;81;76;
72793;PMS5003;63436;26.334;50.194;2022-12-10T00:04:27;90;83;
72793;PMS5003;63436;26.334;50.194;2022-12-10T00:06:51;81;78;
72793;PMS5003;63436;26.334;50.194;2022-12-10T00:09:19;76;73;
72793;PMS5003;63436;26.334;50.194;2022-12-10T00:11:41;79;75;
72793;PMS5003;63436;26.334;50.194;2022-12-10T00:14:07;83;79;
72793;PMS5003;63436;26.334;50.194;2022-12-10T00:16:33;87;79;
72793;PMS5003;63436;26.334;50.194;2022-12-10T00:18:57;82;77;
72793;PMS5003;63436;26.334;50.194;2022-12-10T00:21:24;92;80;
72793;PMS5003;63436;26.334;50.194;2022-12-10T00:23:49;87;82;
72793;PMS5003;63436;26.334;50.194;2022-12-10T00:26:15;78;74;
72793;PMS5003;63436;26.334;50.194;2022-12-10T00:28:40;80;75;
72793;PMS5003;63436;26.334;50.194;2022-12-10T00:31:06;75;74;
72793;PMS5003;63436;26.334;50.194;2022-12-10T00:33:30;79;72;
72793;PMS5003;63436;26.334;50.194;2022-12-10T00:35:56;82;75;
72793;PMS5003;63436;26.334;50.194;2022-12-10T00:38:21;85;79;
72793;PMS5003;63436;26.334;50.194;2022-12-10T00:40:47;89;79;
72793;PMS5003;63436;26.334;50.194;2022-12-10T00:43:13;76;75;
72793;PMS5003;63436;26.334;50.194;2022-12-10T00:45:38;80;76;
72793;PMS5003;63436;26.334;50.194;2022-12-10T00:48:03;82;75;
72793;PMS5003;63436;26.334;50.194;2022-12-10T00:50:33;76;74;
72793;PMS5003;63436;26.334;50.194;2022-12-10T00:52:57;74;71;
72793;PMS5003;63436;26.334;50.194;2022-12-10T00:55:21;77;75;
72793;PMS5003;63436;26.334;50.194;2022-12-10T00:57:46;78;76;
72793;PMS5003;63436;26.334;50.194;2022-12-10T01:00:13;77;72;
72793;PMS5003;63436;26.334;50.194;2022-12-10T01:02:37;77;73;
72793;PMS5003;63436;26.334;50.194;2022-12-10T01:05:03;77;76;
72793;PMS5003;63436;26.334;50.194;2022-12-10T01:07:28;76;66;
72793;PMS5003;63436;26.334;50.194;2022-12-10T01:09:53;79;75;
72793;PMS5003;63436;26.334;50.194;2022-12-10T01:12:19;75;70;
72793;PMS5003;63436;26.334;50.194;2022-12-10T01:14:44;79;71;
72793;PMS5003;63436;26.334;50.194;2022-12-10T01:17:10;69;68;
72793;PMS5003;63436;26.334;50.194;2022-12-10T01:19:36;73;71;
72793;PMS5003;63436;26.334;50.194;2022-12-10T01:22:01;73;67;
72793;PMS5003;63436;26.334;50.194;2022-12-10T01:24:26;72;65;
72793;PMS5003;63436;26.334;50.194;2022-12-10T01:26:52;70;69;
72793;PMS5003;63436;26.334;50.194;2022-12-10T01:29:17;65;63;
72793;PMS5003;63436;26.334;50.194;2022-12-10T01:31:42;60;58;
72793;PMS5003;63436;26.334;50.194;2022-12-10T01:34:09;62;59;
72793;PMS5003;63436;26.334;50.194;2022-12-10T01:36:35;64;61;
72793;PMS5003;63436;26.334;50.194;2022-12-10T01:38:59;72;66;
72793;PMS5003;63436;26.334;50.194;2022-12-10T01:41:27;67;62;
72793;PMS5003;63436;26.334;50.194;2022-12-10T01:43:54;63;62;
72793;PMS5003;63436;26.334;50.194;2022-12-10T01:46:16;66;61;
72793;PMS5003;63436;26.334;50.194;2022-12-10T01:48:42;69;63;
72793;PMS5003;63436;26.334;50.194;2022-12-10T01:51:07;71;68;
72793;PMS5003;63436;26.334;50.194;2022-12-10T01:53:33;66;66;
72793;PMS5003;63436;26.334;50.194;2022-12-10T01:55:58;63;57;
72793;PMS5003;63436;26.334;50.194;2022-12-10T01:58:23;74;67;
72793;PMS5003;63436;26.334;50.194;2022-12-10T02:00:51;61;57;
72793;PMS5003;63436;26.334;50.194;2022-12-10T02:03:29;63;58;
72793;PMS5003;63436;26.334;50.194;2022-12-10T02:05:41;64;64;
72793;PMS5003;63436;26.334;50.194;2022-12-10T02:08:06;65;60;
72793;PMS5003;63436;26.334;50.194;2022-12-10T02:10:35;63;63;
72793;PMS5003;63436;26.334;50.194;2022-12-10T02:12:57;62;61;
72793;PMS5003;63436;26.334;50.194;2022-12-10T02:15:23;65;60;
72793;PMS5003;63436;26.334;50.194;2022-12-10T02:17:48;65;62;
72793;PMS5003;63436;26.334;50.194;2022-12-10T02:22:38;62;59;
72793;PMS5003;63436;26.334;50.194;2022-12-10T02:25:03;68;65;
72793;PMS5003;63436;26.334;50.194;2022-12-10T02:27:29;70;67;
72793;PMS5003;63436;26.334;50.194;2022-12-10T02:29:53;71;64;
72793;PMS5003;63436;26.334;50.194;2022-12-10T02:32:20;70;64;
72793;PMS5003;63436;26.334;50.194;2022-12-10T02:34:45;66;64;
72793;PMS5003;63436;26.334;50.194;2022-12-10T02:37:12;68;62;
72793;PMS5003;63436;26.334;50.194;2022-12-10T02:39:37;70;65;
72793;PMS5003;63436;26.334;50.194;2022-12-10T02:42:00;68;64;
72793;PMS5003;63436;26.334;50.194;2022-12-10T02:44:26;65;64;
72793;PMS5003;63436;26.334;50.194;2022-12-10T02:46:52;72;67;
72793;PMS5003;63436;26.334;50.194;2022-12-10T02:49:16;77;72;
72793;PMS5003;63436;26.334;50.194;2022-12-10T02:51:42;69;66;
72793;PMS5003;63436;26.334;50.194;2022-12-10T02:56:33;71;67;
72793;PMS5003;63436;26.334;50.194;2022-12-10T02:59:02;68;61;
72793;PMS5003;63436;26.334;50.194;2022-12-10T03:01:26;66;64;
72793;PMS5003;63436;26.334;50.194;2022-12-10T03:03:52;70;62;
72793;PMS5003;63436;26.334;50.194;2022-12-10T03:06:17;64;60;
72793;PMS5003;63436;26.334;50.194;2022-12-10T03:08:42;65;62;
72793;PMS5003;63436;26.334;50.194;2022-12-10T03:11:08;74;66;
72793;PMS5003;63436;26.334;50.194;2022-12-10T03:13:32;69;64;
72793;PMS5003;63436;26.334;50.194;2022-12-10T03:15:58;69;65;
72793;PMS5003;63436;26.334;50.194;2022-12-10T03:18:24;68;67;
72793;PMS5003;63436;26.334;50.194;2022-12-10T03:20:49;70;69;
72793;PMS5003;63436;26.334;50.194;2022-12-10T03:23:15;72;67;
72793;PMS5003;63436;26.334;50.194;2022-12-10T03:25:39;67;67;
72793;PMS5003;63436;26.334;50.194;2022-12-10T03:28:04;70;66;
72793;PMS5003;63436;26.334;50.194;2022-12-10T03:30:30;72;67;
72793;PMS5003;63436;26.334;50.194;2022-12-10T03:32:56;74;68;
72793;PMS5003;63436;26.334;50.194;2022-12-10T03:35:21;72;67;
72793;PMS5003;63436;26.334;50.194;2022-12-10T03:37:47;77;72;
72793;PMS5003;63436;26.334;50.194;2022-12-10T03:40:13;71;70;
72793;PMS5003;63436;26.334;50.194;2022-12-10T03:42:38;67;66;
72793;PMS5003;63436;26.334;50.194;2022-12-10T03:45:04;76;74;
72793;PMS5003;63436;26.334;50.194;2022-12-10T03:47:29;77;70;
72793;PMS5003;63436;26.334;50.194;2022-12-10T03:49:54;84;73;
72793;PMS5003;63436;26.334;50.194;2022-12-10T03:52:21;109;90;
72793;PMS5003;63436;26.334;50.194;2022-12-10T03:54:46;81;73;
72793;PMS5003;63436;26.334;50.194;2022-12-10T03:57:11;71;66;
72793;PMS5003;63436;26.334;50.194;2022-12-10T03:59:37;77;69;
72793;PMS5003;63436;26.334;50.194;2022-12-10T04:02:02;76;72;
72793;PMS5003;63436;26.334;50.194;2022-12-10T04:04:27;73;65;
72793;PMS5003;63436;26.334;50.194;2022-12-10T04:06:53;88;79;
72793;PMS5003;63436;26.334;50.194;2022-12-10T04:09:18;81;75;
72793;PMS5003;63436;26.334;50.194;2022-12-10T04:11:43;78;72;
72793;PMS5003;63436;26.334;50.194;2022-12-10T04:14:09;78;73;
72793;PMS5003;63436;26.334;50.194;2022-12-10T04:16:34;75;69;
72793;PMS5003;63436;26.334;50.194;2022-12-10T04:19:01;83;78;
72793;PMS5003;63436;26.334;50.194;2022-12-10T04:21:25;75;73;
72793;PMS5003;63436;26.334;50.194;2022-12-10T04:23:51;86;81;
72793;PMS5003;63436;26.334;50.194;2022-12-10T04:26:16;79;73;
72793;PMS5003;63436;26.334;50.194;2022-12-10T04:28:42;72;68;
72793;PMS5003;63436;26.334;50.194;2022-12-10T04:31:07;79;75;
72793;PMS5003;63436;26.334;50.194;2022-12-10T04:33:33;82;77;
72793;PMS5003;63436;26.334;50.194;2022-12-10T04:35:59;83;79;
72793;PMS5003;63436;26.334;50.194;2022-12-10T04:38:24;87;82;
72793;PMS5003;63436;26.334;50.194;2022-12-10T04:40:50;85;78;
72793;PMS5003;63436;26.334;50.194;2022-12-10T04:43:15;80;77;
72793;PMS5003;63436;26.334;50.194;2022-12-10T04:45:40;85;79;
72793;PMS5003;63436;26.334;50.194;2022-12-10T04:48:05;80;80;
72793;PMS5003;63436;26.334;50.194;2022-12-10T04:50:31;84;75;
72793;PMS5003;63436;26.334;50.194;2022-12-10T04:52:56;79;77;
72793;PMS5003;63436;26.334;50.194;2022-12-10T04:55:21;90;86;
72793;PMS5003;63436;26.334;50.194;2022-12-10T04:57:47;86;82;
72793;PMS5003;63436;26.334;50.194;2022-12-10T05:00:12;77;74;
72793;PMS5003;63436;26.334;50.194;2022-12-10T05:02:38;74;70;
72793;PMS5003;63436;26.334;50.194;2022-12-10T05:05:04;81;74;
72793;PMS5003;63436;26.334;50.194;2022-12-10T05:07:28;76;72;
72793;PMS5003;63436;26.334;50.194;2022-12-10T05:09:54;88;81;
72793;PMS5003;63436;26.334;50.194;2022-12-10T05:12:19;82;79;
72793;PMS5003;63436;26.334;50.194;2022-12-10T05:14:44;71;70;
72793;PMS5003;63436;26.334;50.194;2022-12-10T05:17:10;81;74;
72793;PMS5003;63436;26.334;50.194;2022-12-10T05:19:36;80;75;
72793;PMS5003;63436;26.334;50.194;2022-12-10T05:22:01;81;76;
72793;PMS5003;63436;26.334;50.194;2022-12-10T05:24:27;86;77;
72793;PMS5003;63436;26.334;50.194;2022-12-10T05:26:53;80;75;
72793;PMS5003;63436;26.334;50.194;2022-12-10T05:29:18;86;76;
72793;PMS5003;63436;26.334;50.194;2022-12-10T05:31:43;76;71;
72793;PMS5003;63436;26.334;50.194;2022-12-10T05:34:09;81;77;
72793;PMS5003;63436;26.334;50.194;2022-12-10T05:36:34;89;86;
72793;PMS5003;63436;26.334;50.194;2022-12-10T05:39:00;83;78;
72793;PMS5003;63436;26.334;50.194;2022-12-10T05:41:28;83;82;
72793;PMS5003;63436;26.334;50.194;2022-12-10T05:43:52;86;79;
72793;PMS5003;63436;26.334;50.194;2022-12-10T05:46:20;80;79;
72793;PMS5003;63436;26.334;50.194;2022-12-10T05:48:42;84;79;
72793;PMS5003;63436;26.334;50.194;2022-12-10T05:51:08;80;76;
72793;PMS5003;63436;26.334;50.194;2022-12-10T05:53:33;82;78;
72793;PMS5003;63436;26.334;50.194;2022-12-10T05:55:59;80;76;
72793;PMS5003;63436;26.334;50.194;2022-12-10T05:58:23;81;75;
72793;PMS5003;63436;26.334;50.194;2022-12-10T06:00:48;86;78;
72793;PMS5003;63436;26.334;50.194;2022-12-10T06:03:14;88;81;
72793;PMS5003;63436;26.334;50.194;2022-12-10T06:05:40;84;76;
72793;PMS5003;63436;26.334;50.194;2022-12-10T06:08:05;80;75;
72793;PMS5003;63436;26.334;50.194;2022-12-10T06:10:33;89;85;
72793;PMS5003;63436;26.334;50.194;2022-12-10T06:12:56;89;82;
72793;PMS5003;63436;26.334;50.194;2022-12-10T06:15:21;83;77;
72793;PMS5003;63436;26.334;50.194;2022-12-10T06:17:47;84;77;
72793;PMS5003;63436;26.334;50.194;2022-12-10T06:20:13;84;78;
72793;PMS5003;63436;26.334;50.194;2022-12-10T06:22:38;81;77;
72793;PMS5003;63436;26.334;50.194;2022-12-10T06:25:03;92;84;
72793;PMS5003;63436;26.334;50.194;2022-12-10T06:27:29;78;75;
72793;PMS5003;63436;26.334;50.194;2022-12-10T06:29:54;81;73;
72793;PMS5003;63436;26.334;50.194;2022-12-10T06:32:20;79;75;
72793;PMS5003;63436;26.334;50.194;2022-12-10T06:34:45;87;84;
72793;PMS5003;63436;26.334;50.194;2022-12-10T06:37:10;86;77;
72793;PMS5003;63436;26.334;50.194;2022-12-10T06:39:36;79;77;
72793;PMS5003;63436;26.334;50.194;2022-12-10T06:42:01;83;75;
72793;PMS5003;63436;26.334;50.194;2022-12-10T06:44:27;82;81;
72793;PMS5003;63436;26.334;50.194;2022-12-10T06:46:53;78;77;
72793;PMS5003;63436;26.334;50.194;2022-12-10T06:49:17;85;78;
72793;PMS5003;63436;26.334;50.194;2022-12-10T06:51:43;84;81;
72793;PMS5003;63436;26.334;50.194;2022-12-10T06:54:09;88;84;
72793;PMS5003;63436;26.334;50.194;2022-12-10T06:56:35;87;86;
72793;PMS5003;63436;26.334;50.194;2022-12-10T06:59:03;85;78;
72793;PMS5003;63436;26.334;50.194;2022-12-10T07:01:26;88;80;
72793;PMS5003;63436;26.334;50.194;2022-12-10T07:03:52;94;87;
72793;PMS5003;63436;26.334;50.194;2022-12-10T07:06:17;89;86;
72793;PMS5003;63436;26.334;50.194;2022-12-10T07:08:43;88;83;
72793;PMS5003;63436;26.334;50.194;2022-12-10T07:11:09;83;77;
72793;PMS5003;63436;26.334;50.194;2022-12-10T07:13:33;83;76;
72793;PMS5003;63436;26.334;50.194;2022-12-10T07:15:59;91;86;
72793;PMS5003;63436;26.334;50.194;2022-12-10T07:18:25;87;84;
72793;PMS5003;63436;26.334;50.194;2022-12-10T07:20:50;92;85;
72793;PMS5003;63436;26.334;50.194;2022-12-10T07:23:17;93;87;
72793;PMS5003;63436;26.334;50.194;2022-12-10T07:25:41;94;87;
72793;PMS5003;63436;26.334;50.194;2022-12-10T07:28:07;84;78;
72793;PMS5003;63436;26.334;50.194;2022-12-10T07:30:32;90;83;
72793;PMS5003;63436;26.334;50.194;2022-12-10T07:32:57;89;83;
72793;PMS5003;63436;26.334;50.194;2022-12-10T07:35:22;83;81;
72793;PMS5003;63436;26.334;50.194;2022-12-10T07:37:48;92;83;
72793;PMS5003;63436;26.334;50.194;2022-12-10T07:40:14;86;81;
72793;PMS5003;63436;26.334;50.194;2022-12-10T07:42:39;86;81;
72793;PMS5003;63436;26.334;50.194;2022-12-10T07:45:05;89;82;
72793;PMS5003;63436;26.334;50.194;2022-12-10T07:47:30;81;78;
72793;PMS5003;63436;26.334;50.194;2022-12-10T07:49:55;90;85;
72793;PMS5003;63436;26.334;50.194;2022-12-10T07:52:21;83;81;
72793;PMS5003;63436;26.334;50.194;2022-12-10T07:54:47;82;81;
72793;PMS5003;63436;26.334;50.194;2022-12-10T07:57:12;85;79;
72793;PMS5003;63436;26.334;50.194;2022-12-10T07:59:38;90;86;
72793;PMS5003;63436;26.334;50.194;2022-12-10T08:02:03;89;82;
72793;PMS5003;63436;26.334;50.194;2022-12-10T08:04:29;86;84;
72793;PMS5003;63436;26.334;50.194;2022-12-10T08:06:54;87;82;
72793;PMS5003;63436;26.334;50.194;2022-12-10T08:09:19;86;80;
72793;PMS5003;63436;26.334;50.194;2022-12-10T08:11:45;84;78;
72793;PMS5003;63436;26.334;50.194;2022-12-10T08:14:11;92;86;
72793;PMS5003;63436;26.334;50.194;2022-12-10T08:16:36;82;82;
72793;PMS5003;63436;26.334;50.194;2022-12-10T08:19:02;92;86;
72793;PMS5003;63436;26.334;50.194;2022-12-10T08:21:27;86;79;
72793;PMS5003;63436;26.334;50.194;2022-12-10T08:23:52;93;85;
72793;PMS5003;63436;26.334;50.194;2022-12-10T08:26:18;88;88;
72793;PMS5003;63436;26.334;50.194;2022-12-10T08:28:43;86;84;
72793;PMS5003;63436;26.334;50.194;2022-12-10T08:31:08;81;81;
72793;PMS5003;63436;26.334;50.194;2022-12-10T08:33:33;85;80;
72793;PMS5003;63436;26.334;50.194;2022-12-10T08:35:59;82;78;
72793;PMS5003;63436;26.334;50.194;2022-12-10T08:38:24;90;85;
72793;PMS5003;63436;26.334;50.194;2022-12-10T08:40:49;91;86;
72793;PMS5003;63436;26.334;50.194;2022-12-10T08:43:15;81;78;
72793;PMS5003;63436;26.334;50.194;2022-12-10T08:45:41;89;83;
72793;PMS5003;63436;26.334;50.194;2022-12-10T08:48:07;85;80;
72793;PMS5003;63436;26.334;50.194;2022-12-10T08:50:32;89;83;
72793;PMS5003;63436;26.334;50.194;2022-12-10T08:52:57;83;79;
72793;PMS5003;63436;26.334;50.194;2022-12-10T08:55:23;77;75;
72793;PMS5003;63436;26.334;50.194;2022-12-10T08:57:48;85;77;
72793;PMS5003;63436;26.334;50.194;2022-12-10T09:00:14;79;78;
72793;PMS5003;63436;26.334;50.194;2022-12-10T09:02:39;78;75;
72793;PMS5003;63436;26.334;50.194;2022-12-10T09:05:04;64;57;
72793;PMS5003;63436;26.334;50.194;2022-12-10T09:07:29;75;74;
72793;PMS5003;63436;26.334;50.194;2022-12-10T09:09:55;76;72;
72793;PMS5003;63436;26.334;50.194;2022-12-10T09:12:21;70;69;
72793;PMS5003;63436;26.334;50.194;2022-12-10T09:14:47;66;65;
72793;PMS5003;63436;26.334;50.194;2022-12-10T09:17:12;79;74;
72793;PMS5003;63436;26.334;50.194;2022-12-10T09:19:38;81;75;
72793;PMS5003;63436;26.334;50.194;2022-12-10T09:22:03;82;78;
72793;PMS5003;63436;26.334;50.194;2022-12-10T09:24:29;81;81;
72793;PMS5003;63436;26.334;50.194;2022-12-10T09:26:55;78;76;
72793;PMS5003;63436;26.334;50.194;2022-12-10T09:29:20;72;68;
72793;PMS5003;63436;26.334;50.194;2022-12-10T09:31:48;71;63;
72793;PMS5003;63436;26.334;50.194;2022-12-10T09:34:11;72;72;
72793;PMS5003;63436;26.334;50.194;2022-12-10T09:36:36;68;66;
72793;PMS5003;63436;26.334;50.194;2022-12-10T09:39:02;75;73;
72793;PMS5003;63436;26.334;50.194;2022-12-10T09:41:34;75;67;
72793;PMS5003;63436;26.334;50.194;2022-12-10T09:43:55;68;65;
72793;PMS5003;63436;26.334;50.194;2022-12-10T09:46:21;69;69;
72793;PMS5003;63436;26.334;50.194;2022-12-10T09:48:47;63;61;
72793;PMS5003;63436;26.334;50.194;2022-12-10T09:51:10;69;64;
72793;PMS5003;63436;26.334;50.194;2022-12-10T09:53:35;64;60;
72793;PMS5003;63436;26.334;50.194;2022-12-10T09:56:01;60;53;
72793;PMS5003;63436;26.334;50.194;2022-12-10T09:58:26;64;60;
72793;PMS5003;63436;26.334;50.194;2022-12-10T10:00:54;59;55;
72793;PMS5003;63436;26.334;50.194;2022-12-10T10:03:17;55;52;
72793;PMS5003;63436;26.334;50.194;2022-12-10T10:05:43;65;60;
72793;PMS5003;63436;26.334;50.194;2022-12-10T10:08:13;62;59;
72793;PMS5003;63436;26.334;50.194;2022-12-10T10:10:34;60;59;
72793;PMS5003;63436;26.334;50.194;2022-12-10T10:13:00;60;54;
72793;PMS5003;63436;26.334;50.194;2022-12-10T10:15:26;60;55;
72793;PMS5003;63436;26.334;50.194;2022-12-10T10:17:49;56;53;
72793;PMS5003;63436;26.334;50.194;2022-12-10T10:20:14;52;51;
72793;PMS5003;63436;26.334;50.194;2022-12-10T10:22:40;52;50;
72793;PMS5003;63436;26.334;50.194;2022-12-10T10:25:05;49;47;
72793;PMS5003;63436;26.334;50.194;2022-12-10T10:27:31;53;49;
72793;PMS5003;63436;26.334;50.194;2022-12-10T10:29:57;48;47;
72793;PMS5003;63436;26.334;50.194;2022-12-10T10:32:23;47;47;
72793;PMS5003;63436;26.334;50.194;2022-12-10T10:34:52;50;48;
72793;PMS5003;63436;26.334;50.194;2022-12-10T10:37:16;49;48;
72793;PMS5003;63436;26.334;50.194;2022-12-10T10:39:39;48;44;
72793;PMS5003;63436;26.334;50.194;2022-12-10T10:42:07;45;43;
72793;PMS5003;63436;26.334;50.194;2022-12-10T10:44:33;51;47;
72793;PMS5003;63436;26.334;50.194;2022-12-10T10:46:55;52;51;
72793;PMS5003;63436;26.334;50.194;2022-12-10T10:49:22;48;47;
72793;PMS5003;63436;26.334;50.194;2022-12-10T10:51:46;52;50;
72793;PMS5003;63436;26.334;50.194;2022-12-10T10:54:11;55;52;
72793;PMS5003;63436;26.334;50.194;2022-12-10T10:56:39;45;44;
72793;PMS5003;63436;26.334;50.194;2022-12-10T10:59:04;47;44;
72793;PMS5003;63436;26.334;50.194;2022-12-10T11:03:54;50;49;
72793;PMS5003;63436;26.334;50.194;2022-12-10T11:06:20;59;52;
72793;PMS5003;63436;26.334;50.194;2022-12-10T11:08:45;54;54;
72793;PMS5003;63436;26.334;50.194;2022-12-10T11:11:11;61;60;
72793;PMS5003;63436;26.334;50.194;2022-12-10T11:13:36;53;46;
72793;PMS5003;63436;26.334;50.194;2022-12-10T11:16:09;52;51;
72793;PMS5003;63436;26.334;50.194;2022-12-10T11:18:29;54;53;
72793;PMS5003;63436;26.334;50.194;2022-12-10T11:20:59;55;49;
72793;PMS5003;63436;26.334;50.194;2022-12-10T11:23:19;45;45;
72793;PMS5003;63436;26.334;50.194;2022-12-10T11:25:45;52;49;
72793;PMS5003;63436;26.334;50.194;2022-12-10T11:28:11;44;43;
72793;PMS5003;63436;26.334;50.194;2022-12-10T11:30:34;45;44;
72793;PMS5003;63436;26.334;50.194;2022-12-10T11:33:03;43;43;
72793;PMS5003;63436;26.334;50.194;2022-12-10T11:35:26;46;42;
72793;PMS5003;63436;26.334;50.194;2022-12-10T11:37:53;52;46;
72793;PMS5003;63436;26.334;50.194;2022-12-10T11:40:21;46;43;
72793;PMS5003;63436;26.334;50.194;2022-12-10T11:42:43;49;42;
72793;PMS5003;63436;26.334;50.194;2022-12-10T11:45:08;47;46;
72793;PMS5003;63436;26.334;50.194;2022-12-10T11:47:37;49;45;
72793;PMS5003;63436;26.334;50.194;2022-12-10T11:50:01;58;55;
72793;PMS5003;63436;26.334;50.194;2022-12-10T11:52:25;53;49;
72793;PMS5003;63436;26.334;50.194;2022-12-10T11:54:54;48;47;
72793;PMS5003;63436;26.334;50.194;2022-12-10T11:57:15;56;53;
72793;PMS5003;63436;26.334;50.194;2022-12-10T11:59:40;58;55;
72793;PMS5003;63436;26.334;50.194;2022-12-10T12:02:11;59;56;
72793;PMS5003;63436;26.334;50.194;2022-12-10T12:04:33;57;57;
72793;PMS5003;63436;26.334;50.194;2022-12-10T12:06:59;56;56;
72793;PMS5003;63436;26.334;50.194;2022-12-10T12:09:23;57;54;
72793;PMS5003;63436;26.334;50.194;2022-12-10T12:11:50;57;54;
72793;PMS5003;63436;26.334;50.194;2022-12-10T12:14:13;54;52;
72793;PMS5003;63436;26.334;50.194;2022-12-10T12:16:37;57;55;
72793;PMS5003;63436;26.334;50.194;2022-12-10T12:19:03;54;52;
72793;PMS5003;63436;26.334;50.194;2022-12-10T12:21:28;56;53;
72793;PMS5003;63436;26.334;50.194;2022-12-10T12:23:54;57;52;
72793;PMS5003;63436;26.334;50.194;2022-12-10T12:26:19;56;56;
72793;PMS5003;63436;26.334;50.194;2022-12-10T12:28:45;52;50;
72793;PMS5003;63436;26.334;50.194;2022-12-10T12:31:09;53;50;
72793;PMS5003;63436;26.334;50.194;2022-12-10T12:33:38;50;44;
72793;PMS5003;63436;26.334;50.194;2022-12-10T12:36:00;46;46;
72793;PMS5003;63436;26.334;50.194;2022-12-10T12:38:27;43;41;
72793;PMS5003;63436;26.334;50.194;2022-12-10T12:40:51;46;41;
72793;PMS5003;63436;26.334;50.194;2022-12-10T12:43:16;40;38;
72793;PMS5003;63436;26.334;50.194;2022-12-10T12:45:41;43;42;
72793;PMS5003;63436;26.334;50.194;2022-12-10T12:48:11;38;37;
72793;PMS5003;63436;26.334;50.194;2022-12-10T12:50:37;40;38;
72793;PMS5003;63436;26.334;50.194;2022-12-10T12:52:58;45;41;
72793;PMS5003;63436;26.334;50.194;2022-12-10T12:55:24;47;43;
72793;PMS5003;63436;26.334;50.194;2022-12-10T12:57:49;41;41;
72793;PMS5003;63436;26.334;50.194;2022-12-10T13:00:14;50;48;
72793;PMS5003;63436;26.334;50.194;2022-12-10T13:02:44;50;49;
72793;PMS5003;63436;26.334;50.194;2022-12-10T13:05:05;47;45;
72793;PMS5003;63436;26.334;50.194;2022-12-10T13:07:32;57;51;
72793;PMS5003;63436;26.334;50.194;2022-12-10T13:12:27;48;48;
72793;PMS5003;63436;26.334;50.194;2022-12-10T13:14:54;47;43;
72793;PMS5003;63436;26.334;50.194;2022-12-10T13:19:39;50;45;
72793;PMS5003;63436;26.334;50.194;2022-12-10T13:22:04;47;43;
72793;PMS5003;63436;26.334;50.194;2022-12-10T13:27:02;50;46;
72793;PMS5003;63436;26.334;50.194;2022-12-10T13:29:23;47;42;
72793;PMS5003;63436;26.334;50.194;2022-12-10T13:31:50;51;48;
72793;PMS5003;63436;26.334;50.194;2022-12-10T13:41:27;47;45;
72793;PMS5003;63436;26.334;50.194;2022-12-10T13:43:55;46;46;
72793;PMS5003;63436;26.334;50.194;2022-12-10T13:46:20;55;54;
72793;PMS5003;63436;26.334;50.194;2022-12-10T13:48:44;50;48;
72793;PMS5003;63436;26.334;50.194;2022-12-10T13:51:17;60;54;
72793;PMS5003;63436;26.334;50.194;2022-12-10T13:53:37;58;54;
72793;PMS5003;63436;26.334;50.194;2022-12-10T13:56:02;55;54;
72793;PMS5003;63436;26.334;50.194;2022-12-10T13:58:29;52;50;
72793;PMS5003;63436;26.334;50.194;2022-12-10T14:00:53;57;52;
72793;PMS5003;63436;26.334;50.194;2022-12-10T14:03:23;50;49;
72793;PMS5003;63436;26.334;50.194;2022-12-10T14:05:47;55;53;
72793;PMS5003;63436;26.334;50.194;2022-12-10T14:08:09;58;55;
72793;PMS5003;63436;26.334;50.194;2022-12-10T14:10:34;53;49;
72793;PMS5003;63436;26.334;50.194;2022-12-10T14:13:00;59;54;
72793;PMS5003;63436;26.334;50.194;2022-12-10T14:15:30;51;47;
72793;PMS5003;63436;26.334;50.194;2022-12-10T14:17:53;46;46;
72793;PMS5003;63436;26.334;50.194;2022-12-10T14:20:17;49;48;
72793;PMS5003;63436;26.334;50.194;2022-12-10T14:22:44;52;47;
72793;PMS5003;63436;26.334;50.194;2022-12-10T14:25:10;48;46;
72793;PMS5003;63436;26.334;50.194;2022-12-10T14:27:34;46;42;
72793;PMS5003;63436;26.334;50.194;2022-12-10T14:30:00;55;51;
72793;PMS5003;63436;26.334;50.194;2022-12-10T14:32:25;52;51;
72793;PMS5003;63436;26.334;50.194;2022-12-10T14:34:50;55;52;
72793;PMS5003;63436;26.334;50.194;2022-12-10T14:37:15;51;51;
72793;PMS5003;63436;26.334;50.194;2022-12-10T14:39:40;53;51;
72793;PMS5003;63436;26.334;50.194;2022-12-10T14:42:06;53;53;
72793;PMS5003;63436;26.334;50.194;2022-12-10T14:44:31;50;48;
72793;PMS5003;63436;26.334;50.194;2022-12-10T14:49:23;61;57;
72793;PMS5003;63436;26.334;50.194;2022-12-10T14:51:53;51;51;
72793;PMS5003;63436;26.334;50.194;2022-12-10T14:54:24;57;52;
72793;PMS5003;63436;26.334;50.194;2022-12-10T14:56:38;54;54;
72793;PMS5003;63436;26.334;50.194;2022-12-10T14:59:05;55;55;
72793;PMS5003;63436;26.334;50.194;2022-12-10T15:01:32;65;60;
72793;PMS5003;63436;26.334;50.194;2022-12-10T15:03:56;58;57;
72793;PMS5003;63436;26.334;50.194;2022-12-10T15:06:21;67;61;
72793;PMS5003;63436;26.334;50.194;2022-12-10T15:08:46;59;57;
72793;PMS5003;63436;26.334;50.194;2022-12-10T15:11:14;68;64;
72793;PMS5003;63436;26.334;50.194;2022-12-10T15:13:39;66;63;
72793;PMS5003;63436;26.334;50.194;2022-12-10T15:16:04;62;60;
72793;PMS5003;63436;26.334;50.194;2022-12-10T15:18:30;68;63;
72793;PMS5003;63436;26.334;50.194;2022-12-10T15:21:03;67;61;
72793;PMS5003;63436;26.334;50.194;2022-12-10T15:23:20;65;61;
72793;PMS5003;63436;26.334;50.194;2022-12-10T15:25:47;66;62;
72793;PMS5003;63436;26.334;50.194;2022-12-10T15:30:37;71;67;
72793;PMS5003;63436;26.334;50.194;2022-12-10T15:33:01;75;72;
72793;PMS5003;63436;26.334;50.194;2022-12-10T15:35:26;76;70;
72793;PMS5003;63436;26.334;50.194;2022-12-10T15:37:52;74;72;
72793;PMS5003;63436;26.334;50.194;2022-12-10T15:40:23;76;75;
72793;PMS5003;63436;26.334;50.194;2022-12-10T15:42:44;71;68;
72793;PMS5003;63436;26.334;50.194;2022-12-10T15:45:12;81;78;
72793;PMS5003;63436;26.334;50.194;2022-12-10T15:47:34;76;72;
72793;PMS5003;63436;26.334;50.194;2022-12-10T15:50:00;79;77;
72793;PMS5003;63436;26.334;50.194;2022-12-10T15:52:26;99;98;
72793;PMS5003;63436;26.334;50.194;2022-12-10T15:54:51;82;75;
72793;PMS5003;63436;26.334;50.194;2022-12-10T15:57:17;90;80;
72793;PMS5003;63436;26.334;50.194;2022-12-10T15:59:42;79;74;
72793;PMS5003;63436;26.334;50.194;2022-12-10T16:02:10;81;79;
72793;PMS5003;63436;26.334;50.194;2022-12-10T16:09:25;82;77;
72793;PMS5003;63436;26.334;50.194;2022-12-10T16:11:50;83;77;
72793;PMS5003;63436;26.334;50.194;2022-12-10T16:14:16;88;83;
72793;PMS5003;63436;26.334;50.194;2022-12-10T16:16:40;87;82;
72793;PMS5003;63436;26.334;50.194;2022-12-10T16:19:08;88;84;
72793;PMS5003;63436;26.334;50.194;2022-12-10T16:21:31;83;78;